KGAI/GAI METAR and TAF weather

Enter ICAO airport designator
Station Type Date Time Source
KGAI METAR 2018/12/11 20:56 UTC NOAA

KGAI 112056Z AUTO 23003KT 10SM CLR 06/M09 A3001 RMK AO2 SLP193 T00561089 56019


Station Type Date Time Source
KGAI Decoded METAR 2018/12/11 20:56 UTC NOAA

Station name not available
Dec 11, 2018 - 03:56 PM EST / 2018.12.11 2056 UTC
Wind: from the SW (230 degrees) at 3 MPH (3 KT):0
Visibility: 10 mile(s):0
Sky conditions: clear
Temperature: 42.1 F (5.6 C)
Dew Point: 16.0 F (-8.9 C)
Relative Humidity: 34%
Pressure (altimeter): 30.01 in. Hg (1016 hPa)
Pressure tendency: 0.06 inches (1.9 hPa) lower than three hours ago
ob: KGAI 112056Z AUTO 23003KT 10SM CLR 06/M09 A3001 RMK AO2 SLP193 T00561089 56019
cycle: 21

Station Type Date Time Source
KGAI TAF UTC NOAA

Error!


Example: see airport list